createdAt,value
2022-09-20T00:01:14.967Z,0.73
2022-09-20T00:03:47.537Z,0.60
2022-09-20T00:06:18.332Z,0.73
2022-09-20T00:08:46.964Z,1.00
2022-09-20T00:11:34.281Z,0.68
2022-09-20T00:14:03.325Z,0.80
2022-09-20T00:16:33.763Z,0.60
2022-09-20T00:19:04.093Z,0.65
2022-09-20T00:21:34.064Z,0.60
2022-09-20T00:24:02.050Z,0.50
2022-09-20T00:26:29.757Z,0.60
2022-09-20T00:28:58.106Z,0.60
2022-09-20T00:31:28.712Z,0.70
2022-09-20T00:34:17.091Z,0.63
2022-09-20T00:36:45.112Z,0.55
2022-09-20T00:39:14.015Z,0.60
2022-09-20T00:41:41.588Z,0.50
2022-09-20T00:44:47.739Z,0.50
2022-09-20T00:47:33.662Z,0.50
2022-09-20T00:50:24.405Z,0.50
2022-09-20T00:52:58.857Z,0.70
2022-09-20T00:55:27.809Z,0.52
2022-09-20T00:57:55.721Z,0.60
2022-09-20T01:00:23.654Z,0.40
2022-09-20T01:02:55.715Z,0.60
2022-09-20T01:05:23.448Z,0.50
2022-09-20T01:07:51.821Z,0.60
2022-09-20T01:10:19.295Z,0.60
2022-09-20T01:12:47.419Z,0.47
2022-09-20T01:15:15.795Z,0.40
2022-09-20T01:17:47.121Z,0.45
2022-09-20T01:20:25.469Z,0.50
2022-09-20T01:23:35.358Z,0.60
2022-09-20T01:26:09.161Z,0.40
2022-09-20T01:28:37.006Z,0.60
2022-09-20T01:31:24.949Z,0.57
2022-09-20T01:33:58.432Z,0.50
2022-09-20T01:36:38.335Z,0.50
2022-09-20T01:39:14.944Z,0.70
2022-09-20T01:41:54.563Z,1.10
2022-09-20T01:44:38.924Z,1.25
2022-09-20T01:47:09.575Z,0.60
2022-09-20T01:50:01.039Z,0.60
2022-09-20T01:52:56.243Z,0.60
2022-09-20T01:55:24.296Z,0.85
2022-09-20T01:58:10.333Z,0.40
2022-09-20T02:00:56.177Z,0.70
2022-09-20T02:03:45.101Z,0.90
2022-09-20T02:06:18.740Z,0.80
2022-09-20T02:09:00.238Z,0.65
2022-09-20T02:11:59.230Z,0.80
2022-09-20T02:14:55.852Z,0.50
2022-09-20T02:17:49.475Z,0.68
2022-09-20T02:20:41.035Z,0.73
2022-09-20T02:23:22.502Z,0.65
2022-09-20T02:26:03.627Z,0.70
2022-09-20T02:28:49.502Z,0.80
2022-09-20T02:31:31.943Z,0.70
2022-09-20T02:34:35.365Z,0.80
2022-09-20T02:37:25.612Z,0.80
2022-09-20T02:40:11.457Z,0.80
2022-09-20T02:42:48.807Z,0.90
2022-09-20T02:45:51.741Z,0.90
2022-09-20T02:48:25.048Z,0.80
2022-09-20T02:51:24.751Z,0.80
2022-09-20T02:54:15.328Z,1.15
2022-09-20T02:56:51.780Z,0.70
2022-09-20T02:59:44.965Z,0.65
2022-09-20T03:02:21.120Z,0.50
2022-09-20T03:05:15.998Z,0.90
2022-09-20T03:08:03.243Z,1.25
2022-09-20T03:10:50.122Z,0.80
2022-09-20T03:13:55.425Z,0.90
2022-09-20T03:16:40.694Z,0.80
2022-09-20T03:19:33.474Z,0.90
2022-09-20T03:22:13.066Z,0.85
2022-09-20T03:24:59.696Z,0.77
2022-09-20T03:27:50.480Z,1.05
2022-09-20T03:30:23.226Z,0.97
2022-09-20T03:33:12.187Z,1.08
2022-09-20T03:35:49.658Z,1.23
2022-09-20T03:38:32.321Z,1.08
2022-09-20T03:41:21.064Z,1.20
2022-09-20T03:43:48.420Z,0.80
2022-09-20T03:46:21.782Z,0.85
2022-09-20T03:48:55.171Z,1.52
2022-09-20T03:51:49.630Z,1.20
2022-09-20T03:54:29.175Z,1.08
2022-09-20T03:57:11.823Z,1.00
2022-09-20T04:00:20.749Z,1.20
2022-09-20T04:03:30.008Z,1.10
2022-09-20T04:06:16.304Z,1.00
2022-09-20T04:09:23.092Z,1.00
2022-09-20T04:12:01.626Z,1.00
2022-09-20T04:14:40.467Z,1.30
2022-09-20T04:17:44.643Z,1.20
2022-09-20T04:20:32.040Z,1.17
2022-09-20T04:23:02.812Z,1.08
2022-09-20T04:25:37.539Z,1.37
2022-09-20T04:28:14.208Z,1.25
2022-09-20T04:30:46.190Z,1.15
2022-09-20T04:33:29.516Z,1.20
2022-09-20T04:36:30.530Z,1.35
2022-09-20T04:39:02.108Z,0.90
2022-09-20T04:41:51.320Z,1.67
2022-09-20T04:44:49.768Z,2.30
2022-09-20T04:47:32.936Z,2.20
2022-09-20T04:50:38.271Z,1.87
2022-09-20T04:53:29.326Z,1.80
2022-09-20T04:56:05.906Z,1.30
2022-09-20T04:59:13.073Z,1.62
2022-09-20T05:01:54.668Z,1.50
2022-09-20T05:04:44.366Z,1.50
2022-09-20T05:07:45.844Z,1.47
2022-09-20T05:10:38.681Z,1.23
2022-09-20T05:13:15.799Z,1.50
2022-09-20T05:15:52.976Z,1.60
2022-09-20T05:18:59.431Z,1.20
2022-09-20T05:21:45.240Z,1.30
2022-09-20T05:24:40.904Z,1.83
2022-09-20T05:27:36.995Z,1.62
2022-09-20T05:30:22.919Z,1.45
2022-09-20T05:33:05.789Z,1.55
2022-09-20T05:36:02.272Z,1.47
2022-09-20T05:38:46.078Z,1.40
2022-09-20T05:41:32.496Z,2.00
2022-09-20T05:44:12.664Z,1.60
2022-09-20T05:46:54.888Z,1.58
2022-09-20T05:49:46.640Z,1.63
2022-09-20T05:52:37.006Z,1.65
2022-09-20T05:55:15.755Z,1.83
2022-09-20T05:58:22.105Z,1.83
2022-09-20T06:00:54.008Z,1.40
2022-09-20T06:03:41.445Z,1.40
2022-09-20T06:06:23.100Z,1.30
2022-09-20T06:08:53.836Z,1.83
2022-09-20T06:11:59.664Z,1.60
2022-09-20T06:14:47.804Z,1.83
2022-09-20T06:17:24.183Z,1.07
2022-09-20T06:20:18.716Z,1.65
2022-09-20T06:22:49.784Z,3.08
2022-09-20T06:25:36.462Z,2.72
2022-09-20T06:28:24.804Z,1.85
2022-09-20T06:30:54.447Z,1.63
2022-09-20T06:33:25.258Z,1.55
2022-09-20T06:35:58.736Z,1.80
2022-09-20T06:39:23.143Z,1.70
2022-09-20T06:41:51.513Z,1.52
2022-09-20T06:44:19.035Z,1.33
2022-09-20T06:46:46.548Z,1.45
2022-09-20T06:49:14.292Z,1.45
2022-09-20T06:51:41.970Z,1.58
2022-09-20T06:54:17.167Z,1.30
2022-09-20T06:56:46.772Z,1.73
2022-09-20T06:59:15.236Z,1.80
2022-09-20T07:01:43.470Z,2.30
2022-09-20T07:04:11.268Z,1.50
2022-09-20T07:06:38.898Z,2.37
2022-09-20T07:09:06.721Z,1.90
2022-09-20T07:11:34.920Z,1.73
2022-09-20T07:14:02.548Z,1.87
2022-09-20T07:16:30.082Z,1.92
2022-09-20T07:18:58.003Z,1.75
2022-09-20T07:21:25.546Z,1.47
2022-09-20T07:23:54.026Z,1.92
2022-09-20T07:26:28.410Z,1.60
2022-09-20T07:28:57.381Z,1.73
2022-09-20T07:31:26.724Z,1.90
2022-09-20T07:33:54.527Z,1.57
2022-09-20T07:36:22.059Z,1.60
2022-09-20T07:38:51.072Z,1.98
2022-09-20T07:41:19.769Z,1.67
2022-09-20T07:43:47.275Z,2.05
2022-09-20T07:46:15.037Z,1.93
2022-09-20T07:48:42.734Z,1.77
2022-09-20T07:51:13.508Z,1.67
2022-09-20T07:53:41.629Z,1.80
2022-09-20T07:56:14.832Z,1.70
2022-09-20T07:58:48.742Z,2.10
2022-09-20T08:01:21.090Z,1.60
2022-09-20T08:03:49.238Z,1.50
2022-09-20T08:06:18.461Z,1.55
2022-09-20T08:08:45.956Z,1.30
2022-09-20T08:11:17.157Z,1.50
2022-09-20T08:16:39.836Z,1.60
2022-09-20T08:19:07.508Z,1.83
2022-09-20T08:21:35.939Z,1.80
2022-09-20T08:24:04.121Z,1.83
2022-09-20T08:26:31.777Z,1.70
2022-09-20T08:29:00.068Z,1.50
2022-09-20T08:31:34.475Z,1.40
2022-09-20T08:34:03.895Z,2.03
2022-09-20T08:36:36.750Z,1.67
2022-09-20T08:42:02.367Z,1.50
2022-09-20T08:44:35.243Z,1.37
2022-09-20T08:47:14.189Z,1.50
2022-09-20T08:49:46.034Z,1.63
2022-09-20T08:52:18.865Z,1.25
2022-09-20T08:54:46.831Z,1.25
2022-09-20T08:57:16.735Z,1.55
2022-09-20T08:59:44.950Z,1.45
2022-09-20T09:02:17.917Z,1.67
2022-09-20T09:04:46.311Z,1.50
2022-09-20T09:07:15.481Z,1.30
2022-09-20T09:09:44.924Z,1.20
2022-09-20T09:12:39.704Z,1.45
2022-09-20T09:15:27.696Z,1.23
2022-09-20T09:17:56.129Z,1.33
2022-09-20T09:20:24.544Z,1.30
2022-09-20T09:23:08.936Z,1.20
2022-09-20T09:25:40.113Z,1.30
2022-09-20T09:28:07.970Z,1.30
2022-09-20T09:30:43.139Z,1.25
2022-09-20T09:33:17.061Z,1.20
2022-09-20T09:35:53.090Z,1.35
2022-09-20T09:38:24.288Z,1.23
2022-09-20T09:40:54.556Z,1.10
2022-09-20T09:43:31.431Z,1.15
2022-09-20T09:46:21.515Z,1.55
2022-09-20T09:49:16.743Z,1.10
2022-09-20T09:52:14.741Z,1.40
2022-09-20T09:54:51.440Z,1.03
2022-09-20T09:57:44.528Z,1.08
2022-09-20T10:00:21.985Z,1.20
2022-09-20T10:03:09.101Z,1.10
2022-09-20T10:05:36.489Z,1.10
2022-09-20T10:08:16.202Z,1.37
2022-09-20T10:10:46.341Z,1.30
2022-09-20T10:13:28.712Z,1.73
2022-09-20T10:16:11.937Z,1.52
2022-09-20T10:18:58.476Z,1.87
2022-09-20T10:21:52.565Z,1.37
2022-09-20T10:24:30.589Z,1.12
2022-09-20T10:26:58.002Z,1.10
2022-09-20T10:29:45.616Z,0.95
2022-09-20T10:32:26.413Z,1.50
2022-09-20T10:35:04.043Z,1.00
2022-09-20T10:38:08.218Z,1.10
2022-09-20T10:41:20.958Z,0.88
2022-09-20T10:44:07.225Z,1.15
2022-09-20T10:47:06.845Z,1.15
2022-09-20T10:49:53.449Z,0.83
2022-09-20T10:52:52.518Z,0.98
2022-09-20T10:55:40.248Z,1.00
2022-09-20T10:58:39.092Z,0.82
2022-09-20T11:01:19.292Z,1.02
2022-09-20T11:04:00.903Z,0.73
2022-09-20T11:06:34.662Z,1.00
2022-09-20T11:09:03.549Z,1.40
2022-09-20T11:11:42.765Z,0.90
2022-09-20T11:14:23.386Z,1.02
2022-09-20T11:16:54.442Z,0.90
2022-09-20T11:19:35.869Z,1.05
2022-09-20T11:22:19.993Z,1.40
2022-09-20T11:24:51.756Z,0.68
2022-09-20T11:27:25.571Z,0.82
2022-09-20T11:30:19.952Z,0.60
2022-09-20T11:32:58.013Z,0.80
2022-09-20T11:35:37.764Z,0.60
2022-09-20T11:38:31.313Z,0.50
2022-09-20T11:41:05.090Z,0.77
2022-09-20T11:43:32.987Z,0.77
2022-09-20T11:46:06.967Z,0.80
2022-09-20T11:48:54.751Z,0.70
2022-09-20T11:51:49.570Z,0.75
2022-09-20T11:54:58.975Z,0.75
2022-09-20T11:57:27.005Z,1.00
2022-09-20T11:59:57.169Z,0.90
2022-09-20T12:02:37.027Z,0.80
2022-09-20T12:05:06.739Z,0.88
2022-09-20T12:07:44.345Z,0.90
2022-09-20T12:10:28.572Z,0.63
2022-09-20T12:13:08.199Z,0.90
2022-09-20T12:15:41.793Z,0.70
2022-09-20T12:18:33.884Z,0.80
2022-09-20T12:21:15.363Z,0.70
2022-09-20T12:23:46.679Z,0.60
2022-09-20T12:26:20.829Z,0.80
2022-09-20T12:28:51.071Z,0.93
2022-09-20T12:31:21.449Z,0.62
2022-09-20T12:34:05.343Z,0.57
2022-09-20T12:36:39.072Z,0.67
2022-09-20T12:39:23.354Z,0.60
2022-09-20T12:42:21.704Z,0.65
2022-09-20T12:44:49.132Z,0.70
2022-09-20T12:47:53.249Z,0.90
2022-09-20T12:50:40.564Z,0.83
2022-09-20T12:53:14.300Z,0.85
2022-09-20T12:56:14.177Z,0.77
2022-09-20T12:58:45.630Z,1.17
2022-09-20T13:01:14.486Z,1.00
2022-09-20T13:03:44.229Z,0.80
2022-09-20T13:06:16.330Z,0.82
2022-09-20T13:08:50.098Z,1.00
2022-09-20T13:11:22.871Z,0.85
2022-09-20T13:14:18.833Z,0.90
2022-09-20T13:16:51.479Z,0.73
2022-09-20T13:19:20.147Z,0.82
2022-09-20T13:21:59.724Z,1.20
2022-09-20T13:24:30.695Z,0.68
2022-09-20T13:27:53.988Z,0.90
2022-09-20T13:30:24.412Z,1.17
2022-09-20T13:32:52.062Z,0.90
2022-09-20T13:35:21.748Z,0.75
2022-09-20T13:38:02.056Z,0.60
2022-09-20T13:40:42.484Z,0.40
2022-09-20T13:43:29.244Z,0.60
2022-09-20T13:46:07.989Z,0.70
2022-09-20T13:48:36.107Z,0.60
2022-09-20T13:51:04.265Z,0.40
2022-09-20T13:53:47.111Z,0.60
2022-09-20T13:56:21.629Z,0.50
2022-09-20T13:58:50.394Z,0.40
2022-09-20T14:01:24.331Z,0.60
2022-09-20T14:03:52.909Z,0.50
2022-09-20T14:06:27.022Z,0.57
2022-09-20T14:08:55.695Z,0.40
2022-09-20T14:11:27.704Z,0.68
2022-09-20T14:13:58.297Z,0.60
2022-09-20T14:16:31.869Z,0.60
2022-09-20T14:19:00.273Z,0.55
2022-09-20T14:21:29.416Z,1.13
2022-09-20T14:24:07.704Z,0.70
2022-09-20T14:26:39.453Z,0.50
2022-09-20T14:29:34.622Z,0.45
2022-09-20T14:32:17.938Z,0.50
2022-09-20T14:34:51.653Z,0.60
2022-09-20T14:37:23.535Z,0.57
2022-09-20T14:39:56.859Z,0.70
2022-09-20T14:42:34.951Z,0.70
2022-09-20T14:45:04.477Z,0.70
2022-09-20T14:47:49.849Z,0.67
2022-09-20T14:50:23.502Z,0.60
2022-09-20T14:53:04.611Z,0.80
2022-09-20T14:55:37.103Z,0.90
2022-09-20T14:58:13.540Z,0.77
2022-09-20T15:01:19.520Z,0.80
2022-09-20T15:03:47.432Z,1.02
2022-09-20T15:06:15.167Z,0.70
2022-09-20T15:08:46.603Z,1.70
2022-09-20T15:11:16.040Z,0.50
2022-09-20T15:13:43.588Z,0.40
2022-09-20T15:16:13.723Z,0.47
2022-09-20T15:18:43.087Z,0.43
2022-09-20T15:21:13.500Z,0.40
2022-09-20T15:23:41.430Z,0.50
2022-09-20T15:26:10.638Z,0.50
2022-09-20T15:28:38.288Z,0.40
2022-09-20T15:31:06.116Z,0.55
2022-09-20T15:33:33.661Z,0.70
2022-09-20T15:36:02.295Z,0.60
2022-09-20T15:38:30.264Z,0.50
2022-09-20T15:41:00.418Z,0.60
2022-09-20T15:43:30.301Z,0.60
2022-09-20T15:46:19.824Z,0.50
2022-09-20T15:48:47.559Z,0.68
2022-09-20T15:51:15.875Z,0.60
2022-09-20T15:53:45.599Z,0.55
2022-09-20T15:56:24.336Z,0.60
2022-09-20T15:58:59.161Z,0.70
2022-09-20T16:01:32.989Z,0.60
2022-09-20T16:04:08.046Z,0.70
2022-09-20T16:06:36.024Z,0.68
2022-09-20T16:09:04.525Z,0.50
2022-09-20T16:11:32.305Z,0.70
2022-09-20T16:14:00.961Z,0.90
2022-09-20T16:16:30.308Z,1.57
2022-09-20T16:19:16.346Z,3.20
2022-09-20T16:21:53.629Z,1.52
2022-09-20T16:24:29.409Z,0.93
2022-09-20T16:26:58.030Z,1.20
2022-09-20T16:29:26.062Z,0.83
2022-09-20T16:31:55.119Z,0.82
2022-09-20T16:34:29.716Z,1.10
2022-09-20T16:37:02.352Z,0.75
2022-09-20T16:39:31.103Z,0.90
2022-09-20T16:42:06.432Z,0.90
2022-09-20T16:44:36.147Z,0.85
2022-09-20T16:47:07.520Z,0.80
2022-09-20T16:49:36.249Z,0.70
2022-09-20T16:52:10.652Z,0.60
2022-09-20T16:54:38.499Z,0.60
2022-09-20T16:57:06.158Z,0.60
2022-09-20T16:59:33.753Z,0.90
2022-09-20T17:02:01.575Z,1.00
2022-09-20T17:04:30.237Z,1.20
2022-09-20T17:06:57.778Z,0.70
2022-09-20T17:09:26.246Z,1.00
2022-09-20T17:11:53.881Z,0.77
2022-09-20T17:14:21.936Z,0.52
2022-09-20T17:16:50.419Z,0.98
2022-09-20T17:19:20.032Z,0.60
2022-09-20T17:21:52.136Z,0.50
2022-09-20T17:24:21.558Z,0.68
2022-09-20T17:26:50.412Z,0.57
2022-09-20T17:29:19.365Z,0.65
2022-09-20T17:31:54.603Z,0.83
2022-09-20T17:34:24.638Z,0.90
2022-09-20T17:36:54.171Z,0.90
2022-09-20T17:39:21.646Z,1.00
2022-09-20T17:41:49.763Z,0.85
2022-09-20T17:44:18.706Z,1.10
2022-09-20T17:46:48.615Z,1.05
2022-09-20T17:49:18.343Z,1.48
2022-09-20T17:51:49.154Z,1.02
2022-09-20T17:54:17.172Z,1.48
2022-09-20T17:56:47.136Z,1.40
2022-09-20T17:59:16.194Z,1.30
2022-09-20T18:01:47.251Z,1.25
2022-09-20T18:04:15.896Z,1.50
2022-09-20T18:06:48.744Z,1.65
2022-09-20T18:09:24.727Z,1.33
2022-09-20T18:11:53.961Z,1.33
2022-09-20T18:14:24.407Z,1.52
2022-09-20T18:16:53.435Z,1.60
2022-09-20T18:19:22.710Z,1.62
2022-09-20T18:21:50.840Z,1.40
2022-09-20T18:24:18.383Z,2.10
2022-09-20T18:26:45.883Z,1.98
2022-09-20T18:29:17.771Z,1.90
2022-09-20T18:31:50.626Z,1.70
2022-09-20T18:34:26.755Z,1.40
2022-09-20T18:36:59.097Z,1.62
2022-09-20T18:39:29.185Z,1.90
2022-09-20T18:41:57.344Z,1.50
2022-09-20T18:44:26.132Z,1.80
2022-09-20T18:46:55.035Z,1.30
2022-09-20T18:49:22.832Z,1.87
2022-09-20T18:51:50.282Z,1.73
2022-09-20T18:54:18.987Z,1.60
2022-09-20T18:56:48.331Z,1.85
2022-09-20T18:59:19.968Z,1.73
2022-09-20T19:01:50.970Z,1.80
2022-09-20T19:04:34.867Z,1.60
2022-09-20T19:07:28.135Z,1.50
2022-09-20T19:10:19.512Z,1.80
2022-09-20T19:12:54.326Z,1.30
2022-09-20T19:15:24.784Z,1.70
2022-09-20T19:18:26.493Z,1.70
2022-09-20T19:21:25.042Z,1.92
2022-09-20T19:24:12.625Z,2.00
2022-09-20T19:26:40.807Z,1.70
2022-09-20T19:29:28.494Z,2.05
2022-09-20T19:31:57.887Z,1.77
2022-09-20T19:34:28.141Z,1.70
2022-09-20T19:37:08.293Z,1.60
2022-09-20T19:39:45.025Z,1.53
2022-09-20T19:42:28.678Z,1.60
2022-09-20T19:45:03.728Z,1.70
2022-09-20T19:47:57.062Z,1.30
2022-09-20T19:50:46.454Z,1.70
2022-09-20T19:53:16.910Z,1.53
2022-09-20T19:55:47.819Z,1.30
2022-09-20T19:58:16.034Z,1.40
2022-09-20T20:00:45.414Z,1.90
2022-09-20T20:03:14.101Z,1.90
2022-09-20T20:05:57.442Z,2.10
2022-09-20T20:08:38.864Z,2.20
2022-09-20T20:11:15.495Z,2.00
2022-09-20T20:14:04.294Z,1.77
2022-09-20T20:17:03.040Z,2.08
2022-09-20T20:20:10.327Z,1.90
2022-09-20T20:23:02.948Z,1.70
2022-09-20T20:25:49.001Z,1.85
2022-09-20T20:28:16.634Z,1.80
2022-09-20T20:30:44.460Z,2.05
2022-09-20T20:33:15.842Z,2.10
2022-09-20T20:35:43.348Z,2.05
2022-09-20T20:38:12.598Z,2.10
2022-09-20T20:40:40.766Z,2.03
2022-09-20T20:43:09.353Z,2.17
2022-09-20T20:45:38.507Z,2.20
2022-09-20T20:48:06.256Z,2.42
2022-09-20T20:50:34.600Z,2.28
2022-09-20T20:53:02.380Z,2.33
2022-09-20T20:55:30.303Z,2.20
2022-09-20T20:57:59.580Z,2.03
2022-09-20T21:00:27.963Z,2.30
2022-09-20T21:02:59.925Z,2.22
2022-09-20T21:05:28.220Z,2.20
2022-09-20T21:07:56.380Z,2.42
2022-09-20T21:10:23.856Z,2.47
2022-09-20T21:12:54.395Z,2.17
2022-09-20T21:15:22.046Z,2.80
2022-09-20T21:17:52.928Z,2.30
2022-09-20T21:20:21.597Z,1.92
2022-09-20T21:22:49.101Z,2.70
2022-09-20T21:25:16.648Z,1.90
2022-09-20T21:27:44.445Z,2.78
2022-09-20T21:30:12.451Z,2.45
2022-09-20T21:32:39.883Z,2.10
2022-09-20T21:35:08.013Z,2.33
2022-09-20T21:37:35.477Z,2.20
2022-09-20T21:40:03.198Z,2.20
2022-09-20T21:42:31.012Z,2.47
2022-09-20T21:44:58.455Z,2.35
2022-09-20T21:47:25.953Z,2.50
2022-09-20T21:49:53.741Z,2.20
2022-09-20T21:52:21.239Z,2.72
2022-09-20T21:54:48.895Z,2.40
2022-09-20T21:57:16.625Z,2.83
2022-09-20T21:59:44.120Z,2.33
2022-09-20T22:02:11.644Z,2.60
2022-09-20T22:04:39.473Z,3.15
2022-09-20T22:07:06.948Z,2.90
2022-09-20T22:09:34.438Z,2.80
2022-09-20T22:12:02.246Z,2.70
2022-09-20T22:14:29.714Z,2.72
2022-09-20T22:16:59.355Z,2.85
2022-09-20T22:19:27.045Z,2.55
2022-09-20T22:21:54.542Z,2.80
2022-09-20T22:24:22.015Z,2.90
2022-09-20T22:26:51.167Z,2.90
2022-09-20T22:29:18.836Z,3.30
2022-09-20T22:31:48.108Z,2.67
2022-09-20T22:34:18.252Z,3.00
2022-09-20T22:36:46.368Z,3.10
2022-09-20T22:39:14.601Z,3.22
2022-09-20T22:41:42.771Z,3.00
2022-09-20T22:44:10.802Z,3.22
2022-09-20T22:46:38.518Z,2.95
2022-09-20T22:49:07.726Z,3.17
2022-09-20T22:51:35.964Z,3.22
2022-09-20T22:54:09.177Z,2.78
2022-09-20T22:56:37.725Z,4.28
2022-09-20T22:59:06.172Z,2.85
2022-09-20T23:01:43.895Z,2.63
2022-09-20T23:04:23.432Z,2.92
2022-09-20T23:06:54.997Z,3.30
2022-09-20T23:09:24.937Z,3.10
2022-09-20T23:11:52.644Z,3.03
2022-09-20T23:14:21.468Z,3.43
2022-09-20T23:16:49.540Z,3.15
2022-09-20T23:19:17.643Z,3.00
2022-09-20T23:21:45.303Z,3.45
2022-09-20T23:24:14.595Z,3.70
2022-09-20T23:26:42.875Z,3.50
2022-09-20T23:29:15.419Z,3.78
2022-09-20T23:31:46.485Z,3.58
2022-09-20T23:34:15.513Z,3.67
2022-09-20T23:36:44.040Z,3.40
2022-09-20T23:39:12.735Z,3.50
2022-09-20T23:41:41.349Z,3.80
2022-09-20T23:44:10.357Z,3.60
2022-09-20T23:46:38.545Z,3.50
2022-09-20T23:49:06.771Z,3.70
2022-09-20T23:51:35.540Z,3.43
2022-09-20T23:54:03.727Z,3.45
2022-09-20T23:56:31.200Z,3.17
2022-09-20T23:58:59.000Z,3.70
